createdAt,value
2018-04-14T00:00:47.401Z,0.00
2018-04-14T00:01:47.412Z,0.00
2018-04-14T00:02:47.348Z,0.00
2018-04-14T00:03:47.375Z,0.00
2018-04-14T00:04:47.297Z,0.00
2018-04-14T00:05:47.951Z,0.00
2018-04-14T00:06:47.249Z,0.00
2018-04-14T00:07:47.220Z,0.00
2018-04-14T00:08:47.508Z,0.00
2018-04-14T00:09:47.173Z,0.00
2018-04-14T00:10:47.945Z,0.00
2018-04-14T00:11:47.114Z,0.00
2018-04-14T00:12:47.101Z,0.00
2018-04-14T00:13:47.491Z,0.00
2018-04-14T00:14:47.128Z,0.00
2018-04-14T00:15:47.052Z,0.00
2018-04-14T00:16:46.987Z,0.00
2018-04-14T00:17:47.948Z,0.00
2018-04-14T00:18:46.937Z,0.00
2018-04-14T00:19:46.985Z,0.00
2018-04-14T00:20:46.888Z,0.00
2018-04-14T00:21:46.855Z,0.00
2018-04-14T00:22:46.991Z,0.00
2018-04-14T00:23:46.858Z,0.00
2018-04-14T00:24:46.775Z,0.00
2018-04-14T00:25:47.447Z,0.00
2018-04-14T00:26:46.780Z,0.00
2018-04-14T00:27:46.753Z,0.00
2018-04-14T00:28:46.678Z,0.00
2018-04-14T00:29:46.645Z,0.00
2018-04-14T00:30:46.629Z,0.00
2018-04-14T00:31:46.997Z,0.00
2018-04-14T00:32:46.569Z,0.00
2018-04-14T00:33:46.578Z,0.00
2018-04-14T00:34:46.518Z,0.00
2018-04-14T00:35:47.447Z,0.00
2018-04-14T00:36:46.467Z,0.00
2018-04-14T00:37:46.440Z,0.00
2018-04-14T00:38:46.459Z,0.00
2018-04-14T00:39:46.393Z,0.00
2018-04-14T00:40:46.362Z,0.00
2018-04-14T00:41:46.951Z,0.00
2018-04-14T00:42:46.309Z,0.00
2018-04-14T00:43:46.316Z,0.00
2018-04-14T00:44:46.974Z,0.00
2018-04-14T00:45:46.234Z,0.00
2018-04-14T00:46:46.212Z,0.00
2018-04-14T00:47:46.225Z,0.00
2018-04-14T00:48:46.208Z,0.00
2018-04-14T00:49:46.951Z,0.00
2018-04-14T00:50:46.116Z,0.00
2018-04-14T00:51:46.087Z,0.00
2018-04-14T00:52:46.953Z,0.00
2018-04-14T00:53:46.059Z,0.00
2018-04-14T00:54:46.040Z,0.00
2018-04-14T00:55:45.979Z,0.00
2018-04-14T00:56:45.950Z,0.00
2018-04-14T00:57:46.452Z,0.00
2018-04-14T00:58:45.903Z,0.00
2018-04-14T00:59:46.012Z,0.00
2018-04-14T01:00:45.845Z,0.00
2018-04-14T01:01:46.451Z,0.00
2018-04-14T01:02:45.793Z,0.00
2018-04-14T01:03:46.451Z,0.00
2018-04-14T01:04:45.803Z,0.00
2018-04-14T01:05:45.720Z,0.00
2018-04-14T01:06:46.451Z,0.00
2018-04-14T01:07:45.668Z,0.00
2018-04-14T01:08:45.635Z,0.00
2018-04-14T01:09:46.017Z,0.00
2018-04-14T01:10:45.585Z,0.00
2018-04-14T01:11:46.464Z,0.00
2018-04-14T01:12:45.537Z,0.00
2018-04-14T01:13:45.510Z,0.00
2018-04-14T01:14:45.521Z,0.00
2018-04-14T01:15:45.470Z,0.00
2018-04-14T01:16:45.428Z,0.00
2018-04-14T01:17:45.955Z,0.00
2018-04-14T01:18:45.384Z,0.00
2018-04-14T01:19:45.396Z,0.00
2018-04-14T01:20:45.956Z,0.00
2018-04-14T01:21:45.304Z,0.00
2018-04-14T01:22:45.320Z,0.00
2018-04-14T01:23:45.954Z,0.00
2018-04-14T01:24:45.268Z,0.00
2018-04-14T01:25:45.201Z,0.00
2018-04-14T01:26:45.957Z,0.00
2018-04-14T01:27:45.145Z,0.00
2018-04-14T01:28:45.127Z,0.00
2018-04-14T01:29:45.505Z,0.00
2018-04-14T01:30:45.074Z,0.00
2018-04-14T01:31:45.079Z,0.00
2018-04-14T01:32:45.967Z,0.00
2018-04-14T01:33:45.025Z,0.00
2018-04-14T01:34:44.986Z,0.00
2018-04-14T01:35:44.942Z,0.00
2018-04-14T01:36:44.950Z,0.00
2018-04-14T01:37:44.941Z,0.00
2018-04-14T01:38:44.868Z,0.00
2018-04-14T01:39:44.839Z,0.00
2018-04-14T01:40:44.815Z,0.00
2018-04-14T01:41:44.828Z,0.00
2018-04-14T01:42:44.768Z,0.00
2018-04-14T01:43:45.458Z,0.00
2018-04-14T01:44:44.714Z,0.00
2018-04-14T01:45:45.465Z,0.00
2018-04-14T01:46:44.716Z,0.00
2018-04-14T01:47:46.407Z,0.00
2018-04-14T01:48:44.622Z,0.00
2018-04-14T01:49:45.458Z,0.00
2018-04-14T01:50:44.564Z,0.00
2018-04-14T01:51:44.570Z,0.00
2018-04-14T01:52:45.472Z,0.00
2018-04-14T01:53:44.490Z,0.00
2018-04-14T01:54:44.505Z,0.00
2018-04-14T01:55:44.962Z,0.00
2018-04-14T01:56:44.414Z,0.00
2018-04-14T01:57:44.382Z,0.00
2018-04-14T01:58:44.510Z,0.00
2018-04-14T01:59:44.335Z,0.00
2018-04-14T02:00:44.969Z,0.00
2018-04-14T02:01:44.296Z,0.00
2018-04-14T02:02:44.252Z,0.00
2018-04-14T02:03:44.512Z,0.00
2018-04-14T02:04:44.210Z,0.00
2018-04-14T02:05:44.181Z,0.00
2018-04-14T02:06:44.963Z,0.00
2018-04-14T02:07:44.128Z,0.00
2018-04-14T02:08:44.145Z,0.00
2018-04-14T02:09:44.959Z,0.00
2018-04-14T02:10:44.048Z,0.00
2018-04-14T02:11:44.084Z,0.00
2018-04-14T02:12:43.997Z,0.00
2018-04-14T02:13:43.975Z,0.00
2018-04-14T02:14:44.462Z,0.00
2018-04-14T02:15:43.935Z,0.00
2018-04-14T02:16:43.938Z,0.00
2018-04-14T02:17:44.467Z,0.00
2018-04-14T02:18:43.848Z,0.00
2018-04-14T02:19:44.471Z,0.00
2018-04-14T02:20:43.798Z,0.00
2018-04-14T02:21:43.805Z,0.00
2018-04-14T02:22:43.742Z,0.00
2018-04-14T02:23:43.731Z,0.00
2018-04-14T02:24:43.734Z,0.00
2018-04-14T02:25:43.671Z,0.00
2018-04-14T02:26:43.644Z,0.00
2018-04-14T02:27:44.471Z,0.00
2018-04-14T02:28:43.605Z,0.00
2018-04-14T02:29:43.594Z,0.00
2018-04-14T02:30:43.545Z,0.00
2018-04-14T02:31:43.541Z,0.00
2018-04-14T02:32:43.491Z,0.00
2018-04-14T02:33:43.518Z,0.00
2018-04-14T02:34:43.441Z,0.00
2018-04-14T02:35:43.978Z,0.00
2018-04-14T02:36:43.391Z,0.00
2018-04-14T02:37:43.364Z,0.00
2018-04-14T02:38:43.371Z,0.00
2018-04-14T02:39:43.319Z,0.00
2018-04-14T02:40:43.285Z,0.00
2018-04-14T02:41:43.265Z,0.00
2018-04-14T02:42:43.963Z,0.00
2018-04-14T02:43:43.246Z,0.00
2018-04-14T02:44:43.186Z,0.00
2018-04-14T02:45:43.972Z,0.00
2018-04-14T02:46:43.132Z,0.00
2018-04-14T02:47:43.129Z,0.00
2018-04-14T02:48:44.021Z,0.00
2018-04-14T02:49:43.063Z,0.00
2018-04-14T02:50:43.029Z,0.00
2018-04-14T02:51:43.003Z,0.00
2018-04-14T02:52:42.978Z,0.00
2018-04-14T02:53:42.956Z,0.00
2018-04-14T02:54:43.012Z,0.00
2018-04-14T02:55:42.901Z,0.00
2018-04-14T02:56:42.927Z,0.00
2018-04-14T02:57:43.469Z,0.00
2018-04-14T02:58:42.828Z,0.00
2018-04-14T02:59:43.017Z,0.00
2018-04-14T03:00:42.805Z,0.00
2018-04-14T03:01:43.502Z,0.00
2018-04-14T03:02:42.755Z,0.00
2018-04-14T03:03:42.693Z,0.00
2018-04-14T03:04:42.665Z,0.00
2018-04-14T03:05:43.010Z,0.00
2018-04-14T03:06:42.612Z,0.00
2018-04-14T03:07:43.472Z,0.00
2018-04-14T03:08:42.599Z,0.00
2018-04-14T03:09:42.533Z,0.00
2018-04-14T03:10:43.473Z,0.00
2018-04-14T03:11:42.486Z,0.00
2018-04-14T03:12:42.515Z,0.00
2018-04-14T03:13:42.464Z,0.00
2018-04-14T03:14:42.409Z,0.00
2018-04-14T03:15:42.372Z,0.00
2018-04-14T03:16:42.348Z,0.00
2018-04-14T03:17:42.356Z,0.00
2018-04-14T03:18:42.330Z,0.00
2018-04-14T03:19:42.270Z,0.00
2018-04-14T03:20:42.240Z,0.00
2018-04-14T03:21:42.217Z,0.00
2018-04-14T03:22:42.235Z,0.00
2018-04-14T03:23:42.159Z,0.00
2018-04-14T03:24:42.167Z,0.00
2018-04-14T03:25:42.118Z,0.00
2018-04-14T03:26:42.081Z,0.00
2018-04-14T03:27:42.099Z,0.00
2018-04-14T03:28:42.026Z,0.00
2018-04-14T03:29:42.976Z,0.00
2018-04-14T03:30:41.986Z,0.00
2018-04-14T03:31:41.958Z,0.00
2018-04-14T03:32:41.960Z,0.00
2018-04-14T03:33:41.900Z,0.00
2018-04-14T03:34:41.912Z,0.00
2018-04-14T03:35:41.838Z,0.00
2018-04-14T03:36:41.818Z,0.00
2018-04-14T03:37:41.797Z,0.00
2018-04-14T03:38:41.758Z,0.00
2018-04-14T03:39:41.775Z,0.00
2018-04-14T03:40:41.706Z,0.00
2018-04-14T03:41:41.680Z,0.00
2018-04-14T03:42:41.659Z,0.00
2018-04-14T03:43:41.668Z,0.00
2018-04-14T03:44:41.636Z,0.00
2018-04-14T03:45:41.574Z,0.00
2018-04-14T03:46:41.546Z,0.00
2018-04-14T03:47:41.515Z,0.00
2018-04-14T03:48:41.525Z,0.00
2018-04-14T03:49:41.466Z,0.00
2018-04-14T03:50:41.439Z,0.00
2018-04-14T03:51:41.407Z,0.00
2018-04-14T03:52:41.382Z,4.00
2018-04-14T03:53:41.390Z,4.00
2018-04-14T03:54:41.328Z,4.00
2018-04-14T03:55:41.302Z,4.00
2018-04-14T03:56:41.305Z,4.00
2018-04-14T03:57:41.249Z,4.00
2018-04-14T03:58:41.283Z,4.00
2018-04-14T03:59:41.201Z,4.00
2018-04-14T04:00:41.201Z,4.00
2018-04-14T04:01:41.134Z,4.00
2018-04-14T04:02:41.110Z,4.00
2018-04-14T04:03:41.114Z,4.00
2018-04-14T04:04:41.054Z,4.00
2018-04-14T04:05:41.027Z,8.00
2018-04-14T04:06:41.008Z,8.00
2018-04-14T04:07:41.656Z,12.00
2018-04-14T04:08:41.029Z,12.00
2018-04-14T04:09:40.921Z,12.00
2018-04-14T04:10:40.894Z,16.00
2018-04-14T04:11:40.882Z,16.00
2018-04-14T04:12:43.479Z,20.00
2018-04-14T04:13:40.850Z,20.00
2018-04-14T04:14:40.819Z,24.00
2018-04-14T04:15:40.808Z,32.00
2018-04-14T04:16:40.732Z,36.00
2018-04-14T04:17:40.718Z,32.00
2018-04-14T04:18:40.705Z,40.00
2018-04-14T04:19:40.683Z,44.00
2018-04-14T04:20:40.669Z,56.00
2018-04-14T04:21:40.649Z,56.00
2018-04-14T04:22:40.571Z,44.00
2018-04-14T04:23:40.548Z,52.00
2018-04-14T04:24:40.522Z,40.00
2018-04-14T04:25:41.035Z,36.00
2018-04-14T04:26:40.464Z,36.00
2018-04-14T04:27:40.482Z,36.00
2018-04-14T04:28:42.386Z,40.00
2018-04-14T04:29:40.984Z,40.00
2018-04-14T04:30:40.352Z,48.00
2018-04-14T04:31:40.324Z,56.00
2018-04-14T04:32:40.301Z,44.00
2018-04-14T04:33:40.316Z,40.00
2018-04-14T04:34:40.247Z,48.00
2018-04-14T04:35:40.220Z,76.00
2018-04-14T04:36:40.986Z,88.00
2018-04-14T04:37:40.168Z,76.00
2018-04-14T04:38:40.185Z,96.00
2018-04-14T04:39:44.020Z,104.00
2018-04-14T04:40:40.084Z,96.00
2018-04-14T04:41:40.177Z,120.00
2018-04-14T04:42:40.039Z,132.00
2018-04-14T04:43:40.037Z,132.00
2018-04-14T04:44:40.012Z,168.00
2018-04-14T04:45:39.960Z,124.00
2018-04-14T04:46:39.929Z,148.00
2018-04-14T04:47:39.897Z,168.00
2018-04-14T04:48:39.871Z,236.00
2018-04-14T04:49:41.393Z,224.00
2018-04-14T04:50:39.876Z,264.00
2018-04-14T04:51:39.797Z,268.00
2018-04-14T04:52:39.766Z,344.00
2018-04-14T04:53:39.740Z,344.00
2018-04-14T04:54:39.718Z,364.00
2018-04-14T04:55:39.725Z,380.00
2018-04-14T04:56:39.692Z,364.00
2018-04-14T04:57:39.643Z,360.00
2018-04-14T04:58:39.605Z,412.00
2018-04-14T04:59:39.581Z,436.00
2018-04-14T05:00:39.551Z,472.00
2018-04-14T05:01:39.563Z,456.00
2018-04-14T05:02:39.499Z,416.00
2018-04-14T05:03:39.475Z,432.00
2018-04-14T05:04:39.448Z,436.00
2018-04-14T05:05:39.417Z,488.00
2018-04-14T05:06:39.429Z,500.00
2018-04-14T05:07:39.380Z,548.00
2018-04-14T05:08:41.892Z,608.00
2018-04-14T05:09:39.309Z,600.00
2018-04-14T05:10:39.288Z,616.00
2018-04-14T05:11:39.317Z,652.00
2018-04-14T05:12:39.285Z,672.00
2018-04-14T05:13:39.204Z,732.00
2018-04-14T05:14:39.175Z,796.00
2018-04-14T05:15:39.152Z,848.00
2018-04-14T05:16:39.125Z,888.00
2018-04-14T05:17:39.137Z,892.00
2018-04-14T05:18:39.070Z,964.00
2018-04-14T05:19:39.045Z,1028.00
2018-04-14T05:20:40.957Z,1124.00
2018-04-14T05:21:39.596Z,1188.00
2018-04-14T05:22:39.024Z,1260.00
2018-04-14T05:23:38.935Z,1340.00
2018-04-14T05:24:38.923Z,1400.00
2018-04-14T05:25:38.885Z,1464.00
2018-04-14T05:26:38.855Z,1492.00
2018-04-14T05:27:38.868Z,1480.00
2018-04-14T05:28:38.804Z,1448.00
2018-04-14T05:29:38.776Z,1440.00
2018-04-14T05:30:38.751Z,1420.00
2018-04-14T05:31:38.724Z,1420.00
2018-04-14T05:32:46.562Z,1444.00
2018-04-14T05:33:38.735Z,1488.00
2018-04-14T05:34:38.645Z,1516.00
2018-04-14T05:35:38.648Z,1544.00
2018-04-14T05:36:38.590Z,1560.00
2018-04-14T05:37:39.925Z,1624.00
2018-04-14T05:38:38.586Z,1720.00
2018-04-14T05:39:38.518Z,1848.00
2018-04-14T05:40:38.480Z,1968.00
2018-04-14T05:41:38.458Z,2084.00
2018-04-14T05:42:38.456Z,2180.00
2018-04-14T05:43:38.455Z,2208.00
2018-04-14T05:44:38.374Z,2152.00
2018-04-14T05:45:38.415Z,2136.00
2018-04-14T05:46:38.321Z,1984.00
2018-04-14T05:47:38.291Z,1964.00
2018-04-14T05:48:38.299Z,1768.00
2018-04-14T05:49:38.993Z,1588.00
2018-04-14T05:50:46.059Z,1484.00
2018-04-14T05:51:39.900Z,1484.00
2018-04-14T05:52:38.163Z,1364.00
2018-04-14T05:53:38.179Z,1268.00
2018-04-14T05:54:38.110Z,1172.00
2018-04-14T05:55:38.080Z,1072.00
2018-04-14T05:56:38.056Z,876.00
2018-04-14T05:57:38.028Z,924.00
2018-04-14T05:58:38.043Z,932.00
2018-04-14T05:59:38.640Z,916.00
2018-04-14T06:00:40.828Z,872.00
2018-04-14T06:01:37.921Z,852.00
2018-04-14T06:02:37.892Z,972.00
2018-04-14T06:03:37.940Z,1028.00
2018-04-14T06:04:37.839Z,1104.00
2018-04-14T06:05:37.901Z,1124.00
2018-04-14T06:06:37.792Z,1248.00
2018-04-14T06:07:37.996Z,1592.00
2018-04-14T06:08:37.963Z,1960.00
2018-04-14T06:09:37.712Z,2128.00
2018-04-14T06:10:37.686Z,2316.00
2018-04-14T06:11:37.681Z,2280.00
2018-04-14T06:12:38.556Z,2168.00
2018-04-14T06:13:37.631Z,2584.00
2018-04-14T06:14:37.578Z,2760.00
2018-04-14T06:15:37.638Z,2964.00
2018-04-14T06:16:39.195Z,2820.00
2018-04-14T06:17:37.499Z,2780.00
2018-04-14T06:18:37.472Z,2668.00
2018-04-14T06:19:39.910Z,2632.00
2018-04-14T06:20:37.444Z,2568.00
2018-04-14T06:21:37.391Z,2380.00
2018-04-14T06:22:37.372Z,2320.00
2018-04-14T06:23:37.382Z,2448.00
2018-04-14T06:24:37.311Z,2760.00
2018-04-14T06:25:38.420Z,2924.00
2018-04-14T06:26:37.253Z,3164.00
2018-04-14T06:27:37.230Z,3048.00
2018-04-14T06:28:37.231Z,2880.00
2018-04-14T06:29:37.220Z,3080.00
2018-04-14T06:30:37.152Z,3284.00
2018-04-14T06:31:37.119Z,3248.00
2018-04-14T06:32:37.157Z,3920.00
2018-04-14T06:33:37.114Z,4424.00
2018-04-14T06:34:37.048Z,5216.00
2018-04-14T06:35:38.415Z,5344.00
2018-04-14T06:36:36.995Z,4824.00
2018-04-14T06:37:36.965Z,5108.00
2018-04-14T06:38:36.976Z,4872.00
2018-04-14T06:39:36.910Z,5012.00
2018-04-14T06:40:36.883Z,5740.00
2018-04-14T06:41:36.880Z,7056.00
2018-04-14T06:42:36.887Z,8176.00
2018-04-14T06:43:36.803Z,8168.00
2018-04-14T06:44:36.778Z,7960.00
2018-04-14T06:45:36.755Z,7892.00
2018-04-14T06:46:36.822Z,7908.00
2018-04-14T06:47:36.748Z,7720.00
2018-04-14T06:48:36.747Z,7684.00
2018-04-14T06:49:39.436Z,8232.00
2018-04-14T06:50:36.636Z,9324.00
2018-04-14T06:51:36.602Z,9952.00
2018-04-14T06:52:36.614Z,10176.00
2018-04-14T06:53:36.574Z,10172.00
2018-04-14T06:54:36.526Z,10048.00
2018-04-14T06:55:36.502Z,10552.00
2018-04-14T06:56:36.476Z,11348.00
2018-04-14T06:57:36.461Z,11188.00
2018-04-14T06:58:36.453Z,10984.00
2018-04-14T06:59:36.402Z,10728.00
2018-04-14T07:00:36.456Z,10464.00
2018-04-14T07:01:36.362Z,10600.00
2018-04-14T07:02:36.370Z,10224.00
2018-04-14T07:03:36.295Z,10040.00
2018-04-14T07:04:36.336Z,9680.00
2018-04-14T07:05:36.244Z,8772.00
2018-04-14T07:06:36.226Z,8908.00
2018-04-14T07:07:36.247Z,9604.00
2018-04-14T07:08:36.172Z,10184.00
2018-04-14T07:09:36.157Z,10496.00
2018-04-14T07:10:36.158Z,11024.00
2018-04-14T07:11:36.094Z,11920.00
2018-04-14T07:12:36.074Z,11784.00
2018-04-14T07:13:36.044Z,11468.00
2018-04-14T07:14:36.055Z,11580.00
2018-04-14T07:15:35.998Z,11976.00
2018-04-14T07:16:35.977Z,12084.00
2018-04-14T07:17:36.043Z,12316.00
2018-04-14T07:18:40.456Z,12504.00
2018-04-14T07:19:36.034Z,13352.00
2018-04-14T07:20:35.897Z,14524.00
2018-04-14T07:21:35.849Z,15048.00
2018-04-14T07:22:35.867Z,15656.00
2018-04-14T07:23:35.799Z,15792.00
2018-04-14T07:24:35.830Z,15432.00
2018-04-14T07:25:35.753Z,15376.00
2018-04-14T07:26:35.727Z,14400.00
2018-04-14T07:27:35.702Z,13200.00
2018-04-14T07:28:35.684Z,12128.00
2018-04-14T07:29:35.692Z,11692.00
2018-04-14T07:30:35.636Z,11428.00
2018-04-14T07:31:35.605Z,10776.00
2018-04-14T07:32:35.623Z,9732.00
2018-04-14T07:33:35.562Z,8484.00
2018-04-14T07:34:35.572Z,7460.00
2018-04-14T07:35:35.519Z,6780.00
2018-04-14T07:36:35.491Z,6136.00
2018-04-14T07:37:35.516Z,5312.00
2018-04-14T07:38:35.447Z,5172.00
2018-04-14T07:39:35.425Z,5388.00
2018-04-14T07:40:35.409Z,5876.00
2018-04-14T07:41:35.371Z,6268.00
2018-04-14T07:42:35.381Z,7204.00
2018-04-14T07:43:35.325Z,8268.00
2018-04-14T07:44:35.352Z,8524.00
2018-04-14T07:45:35.290Z,8996.00
2018-04-14T07:46:35.245Z,9716.00
2018-04-14T07:47:35.230Z,10440.00
2018-04-14T07:48:35.207Z,11076.00
2018-04-14T07:49:35.210Z,12072.00
2018-04-14T07:50:35.158Z,12688.00
2018-04-14T07:51:35.129Z,12936.00
2018-04-14T07:52:35.121Z,13216.00
2018-04-14T07:53:35.088Z,12156.00
2018-04-14T07:54:35.530Z,11992.00
2018-04-14T07:55:35.039Z,12640.00
2018-04-14T07:56:35.051Z,13996.00
2018-04-14T07:57:35.024Z,14336.00
2018-04-14T07:58:34.961Z,14780.00
2018-04-14T07:59:34.935Z,15456.00
2018-04-14T08:00:34.914Z,15816.00
2018-04-14T08:01:34.937Z,16396.00
2018-04-14T08:02:34.885Z,17856.00
2018-04-14T08:03:34.847Z,19040.00
2018-04-14T08:04:34.820Z,19520.00
2018-04-14T08:05:34.796Z,19424.00
2018-04-14T08:06:35.074Z,19616.00
2018-04-14T08:07:34.772Z,19104.00
2018-04-14T08:08:35.424Z,17600.00
2018-04-14T08:09:34.750Z,17024.00
2018-04-14T08:10:34.680Z,15584.00
2018-04-14T08:11:34.666Z,13844.00
2018-04-14T08:12:34.643Z,13528.00
2018-04-14T08:13:34.636Z,13672.00
2018-04-14T08:14:34.633Z,14312.00
2018-04-14T08:15:34.563Z,15352.00
2018-04-14T08:16:35.515Z,15348.00
2018-04-14T08:17:34.518Z,15308.00
2018-04-14T08:18:34.492Z,16228.00
2018-04-14T08:19:34.500Z,16056.00
2018-04-14T08:20:34.452Z,16048.00
2018-04-14T08:21:34.460Z,15084.00
2018-04-14T08:22:34.428Z,15784.00
2018-04-14T08:23:34.420Z,16748.00
2018-04-14T08:24:34.364Z,17248.00
2018-04-14T08:25:34.356Z,16076.00
2018-04-14T08:26:37.431Z,15676.00
2018-04-14T08:27:34.295Z,15624.00
2018-04-14T08:28:34.318Z,16184.00
2018-04-14T08:29:34.322Z,15836.00
2018-04-14T08:30:34.228Z,15412.00
2018-04-14T08:31:34.214Z,14676.00
2018-04-14T08:32:34.185Z,13896.00
2018-04-14T08:33:34.198Z,13356.00
2018-04-14T08:34:35.330Z,9988.00
2018-04-14T08:35:34.160Z,11396.00
2018-04-14T08:36:34.096Z,12008.00
2018-04-14T08:37:34.076Z,11716.00
2018-04-14T08:38:34.064Z,11360.00
2018-04-14T08:39:34.029Z,11224.00
2018-04-14T08:40:34.066Z,10048.00
2018-04-14T08:41:34.007Z,10096.00
2018-04-14T08:42:33.963Z,10704.00
2018-04-14T08:43:33.937Z,10308.00
2018-04-14T08:44:33.921Z,9108.00
2018-04-14T08:45:33.947Z,7848.00
2018-04-14T08:46:33.874Z,9420.00
2018-04-14T08:47:34.450Z,11076.00
2018-04-14T08:48:33.828Z,12680.00
2018-04-14T08:49:33.805Z,13312.00
2018-04-14T08:50:33.826Z,13792.00
2018-04-14T08:51:34.134Z,14012.00
2018-04-14T08:52:33.775Z,14772.00
2018-04-14T08:53:33.726Z,15128.00
2018-04-14T08:54:34.488Z,14196.00
2018-04-14T08:55:33.669Z,13168.00
2018-04-14T08:56:33.647Z,12784.00
2018-04-14T08:57:33.663Z,12744.00
2018-04-14T08:58:33.610Z,12716.00
2018-04-14T08:59:33.589Z,12688.00
2018-04-14T09:00:33.557Z,12860.00
2018-04-14T09:01:33.561Z,12808.00
2018-04-14T09:02:33.555Z,12884.00
2018-04-14T09:03:34.045Z,12888.00
2018-04-14T09:04:33.476Z,12792.00
2018-04-14T09:05:33.450Z,12696.00
2018-04-14T09:06:36.255Z,12740.00
2018-04-14T09:07:33.449Z,12412.00
2018-04-14T09:08:33.414Z,11972.00
2018-04-14T09:09:33.962Z,11744.00
2018-04-14T09:10:33.336Z,11896.00
2018-04-14T09:11:33.317Z,12300.00
2018-04-14T09:12:33.332Z,12876.00
2018-04-14T09:13:33.501Z,13568.00
2018-04-14T09:14:34.988Z,14152.00
2018-04-14T09:15:33.232Z,14416.00
2018-04-14T09:16:33.205Z,14324.00
2018-04-14T09:17:33.223Z,14524.00
2018-04-14T09:18:34.006Z,15020.00
2018-04-14T09:19:33.180Z,15528.00
2018-04-14T09:20:33.118Z,15396.00
2018-04-14T09:21:33.099Z,15216.00
2018-04-14T09:22:33.073Z,15756.00
2018-04-14T09:23:33.054Z,17440.00
2018-04-14T09:24:33.089Z,17888.00
2018-04-14T09:25:33.047Z,17728.00
2018-04-14T09:26:32.991Z,17600.00
2018-04-14T09:27:32.965Z,17792.00
2018-04-14T09:28:32.947Z,18336.00
2018-04-14T09:29:32.926Z,18848.00
2018-04-14T09:30:32.934Z,18624.00
2018-04-14T09:31:32.921Z,17728.00
2018-04-14T09:32:32.859Z,17216.00
2018-04-14T09:33:32.839Z,17568.00
2018-04-14T09:34:32.862Z,17728.00
2018-04-14T09:35:32.794Z,17696.00
2018-04-14T09:36:32.772Z,18048.00
2018-04-14T09:37:32.795Z,18144.00
2018-04-14T09:38:32.737Z,18304.00
2018-04-14T09:39:32.710Z,18656.00
2018-04-14T09:40:32.688Z,18752.00
2018-04-14T09:41:32.716Z,18528.00
2018-04-14T09:42:32.658Z,18496.00
2018-04-14T09:43:32.631Z,18304.00
2018-04-14T09:44:32.605Z,17344.00
2018-04-14T09:45:32.588Z,15080.00
2018-04-14T09:46:32.609Z,13880.00
2018-04-14T09:47:32.540Z,13684.00
2018-04-14T09:48:32.521Z,13480.00
2018-04-14T09:49:32.501Z,12348.00
2018-04-14T09:50:32.478Z,13212.00
2018-04-14T09:51:32.494Z,13588.00
2018-04-14T09:52:32.449Z,14256.00
2018-04-14T09:53:33.059Z,14960.00
2018-04-14T09:54:32.399Z,15728.00
2018-04-14T09:55:32.410Z,15232.00
2018-04-14T09:56:32.353Z,16060.00
2018-04-14T09:57:32.329Z,15944.00
2018-04-14T09:58:32.320Z,14516.00
2018-04-14T09:59:32.286Z,13692.00
2018-04-14T10:00:32.301Z,14620.00
2018-04-14T10:01:32.252Z,15396.00
2018-04-14T10:02:32.263Z,17984.00
2018-04-14T10:03:32.208Z,19136.00
2018-04-14T10:04:32.180Z,18688.00
2018-04-14T10:05:32.161Z,17952.00
2018-04-14T10:06:32.175Z,16076.00
2018-04-14T10:07:32.168Z,16836.00
2018-04-14T10:08:32.095Z,19072.00
2018-04-14T10:09:32.075Z,19584.00
2018-04-14T10:10:32.078Z,20000.00
2018-04-14T10:11:32.034Z,20704.00
2018-04-14T10:12:32.057Z,21024.00
2018-04-14T10:13:32.030Z,21120.00
2018-04-14T10:14:31.972Z,20288.00
2018-04-14T10:15:31.950Z,19968.00
2018-04-14T10:16:31.952Z,19808.00
2018-04-14T10:17:31.913Z,19776.00
2018-04-14T10:18:31.945Z,20992.00
2018-04-14T10:19:31.868Z,20576.00
2018-04-14T10:20:31.853Z,20128.00
2018-04-14T10:21:31.830Z,21184.00
2018-04-14T10:22:31.807Z,22400.00
2018-04-14T10:23:31.823Z,22784.00
2018-04-14T10:24:31.766Z,22560.00
2018-04-14T10:25:31.779Z,21952.00
2018-04-14T10:26:31.726Z,20672.00
2018-04-14T10:27:31.706Z,20224.00
2018-04-14T10:28:31.684Z,18464.00
2018-04-14T10:29:31.701Z,17248.00
2018-04-14T10:30:31.646Z,18880.00
2018-04-14T10:31:31.623Z,17376.00
2018-04-14T10:32:31.612Z,15284.00
2018-04-14T10:33:31.626Z,14764.00
2018-04-14T10:34:31.597Z,18240.00
2018-04-14T10:35:31.546Z,20576.00
2018-04-14T10:36:31.542Z,20512.00
2018-04-14T10:37:31.521Z,19360.00
2018-04-14T10:38:31.487Z,17888.00
2018-04-14T10:39:31.517Z,19648.00
2018-04-14T10:40:31.444Z,21888.00
2018-04-14T10:41:31.425Z,24800.00
2018-04-14T10:42:31.405Z,24000.00
2018-04-14T10:43:31.464Z,23904.00
2018-04-14T10:44:31.409Z,24736.00
2018-04-14T10:45:32.071Z,22080.00
2018-04-14T10:46:31.330Z,21312.00
2018-04-14T10:47:31.308Z,20672.00
2018-04-14T10:48:31.295Z,20352.00
2018-04-14T10:49:31.309Z,19104.00
2018-04-14T10:50:31.251Z,18784.00
2018-04-14T10:51:31.274Z,19488.00
2018-04-14T10:52:31.212Z,19296.00
2018-04-14T10:53:31.193Z,19168.00
2018-04-14T10:54:31.173Z,16920.00
2018-04-14T10:55:31.157Z,16960.00
2018-04-14T10:56:31.177Z,16804.00
2018-04-14T10:57:31.114Z,16648.00
2018-04-14T10:58:31.097Z,16636.00
2018-04-14T10:59:31.075Z,17248.00
2018-04-14T11:00:31.056Z,17824.00
2018-04-14T11:01:31.093Z,16928.00
2018-04-14T11:02:31.020Z,17856.00
2018-04-14T11:03:31.005Z,19520.00
2018-04-14T11:04:30.984Z,19712.00
2018-04-14T11:05:30.964Z,19616.00
2018-04-14T11:06:30.994Z,19584.00
2018-04-14T11:07:30.924Z,20032.00
2018-04-14T11:08:30.904Z,20032.00
2018-04-14T11:09:30.891Z,17920.00
2018-04-14T11:10:30.864Z,15856.00
2018-04-14T11:11:30.885Z,14784.00
2018-04-14T11:12:30.828Z,13176.00
2018-04-14T11:13:30.809Z,11896.00
2018-04-14T11:14:30.789Z,12132.00
2018-04-14T11:15:30.769Z,12680.00
2018-04-14T11:16:30.793Z,12228.00
2018-04-14T11:17:30.734Z,13240.00
2018-04-14T11:18:30.751Z,12252.00
2018-04-14T11:19:30.707Z,9692.00
2018-04-14T11:20:30.704Z,7564.00
2018-04-14T11:21:30.655Z,6348.00
2018-04-14T11:22:30.664Z,5272.00
2018-04-14T11:23:30.611Z,5216.00
2018-04-14T11:24:30.633Z,5476.00
2018-04-14T11:25:30.570Z,5732.00
2018-04-14T11:26:30.591Z,5328.00
2018-04-14T11:27:30.531Z,4332.00
2018-04-14T11:28:30.514Z,3512.00
2018-04-14T11:29:30.561Z,3312.00
2018-04-14T11:30:30.525Z,3440.00
2018-04-14T11:31:30.448Z,2940.00
2018-04-14T11:32:30.431Z,3500.00
2018-04-14T11:33:30.463Z,4516.00
2018-04-14T11:34:30.391Z,5100.00
2018-04-14T11:35:30.369Z,5080.00
2018-04-14T11:36:30.351Z,4756.00
2018-04-14T11:37:30.328Z,4448.00
2018-04-14T11:38:30.382Z,4476.00
2018-04-14T11:39:30.292Z,4900.00
2018-04-14T11:40:30.265Z,5232.00
2018-04-14T11:41:30.277Z,5424.00
2018-04-14T11:42:30.229Z,4800.00
2018-04-14T11:43:30.211Z,4428.00
2018-04-14T11:44:30.183Z,4420.00
2018-04-14T11:45:30.196Z,4032.00
2018-04-14T11:46:30.139Z,3440.00
2018-04-14T11:47:30.112Z,3272.00
2018-04-14T11:48:30.127Z,3632.00
2018-04-14T11:49:30.074Z,4052.00
2018-04-14T11:50:30.045Z,4804.00
2018-04-14T11:51:30.024Z,5264.00
2018-04-14T11:52:30.007Z,5420.00
2018-04-14T11:53:30.012Z,5648.00
2018-04-14T11:54:29.964Z,5664.00
2018-04-14T11:55:29.976Z,5080.00
2018-04-14T11:56:29.917Z,4604.00
2018-04-14T11:57:29.892Z,4884.00
2018-04-14T11:58:29.875Z,5928.00
2018-04-14T11:59:29.872Z,7808.00
2018-04-14T12:00:29.852Z,10368.00
2018-04-14T12:01:29.803Z,12572.00
2018-04-14T12:02:29.781Z,13332.00
2018-04-14T12:03:29.806Z,13356.00
2018-04-14T12:04:29.734Z,13188.00
2018-04-14T12:05:29.716Z,12980.00
2018-04-14T12:06:29.720Z,12348.00
2018-04-14T12:07:29.664Z,11244.00
2018-04-14T12:08:29.647Z,9680.00
2018-04-14T12:09:29.652Z,8824.00
2018-04-14T12:10:29.600Z,9964.00
2018-04-14T12:11:29.570Z,11020.00
2018-04-14T12:12:29.661Z,10772.00
2018-04-14T12:13:29.528Z,10992.00
2018-04-14T12:14:29.502Z,12040.00
2018-04-14T12:15:29.487Z,13212.00
2018-04-14T12:16:29.500Z,13712.00
2018-04-14T12:17:30.100Z,13948.00
2018-04-14T12:18:29.417Z,13120.00
2018-04-14T12:19:29.390Z,13556.00
2018-04-14T12:20:29.408Z,13724.00
2018-04-14T12:21:29.343Z,12236.00
2018-04-14T12:22:29.327Z,11144.00
2018-04-14T12:23:29.298Z,10492.00